sensor_id;sensor_type;location;lat;lon;timestamp;P1;durP1;ratioP1;P2;durP2;ratioP2
3211;SDS011;1618;47.056;15.472;2023-04-30T00:01:41;5.70;;;5.40;;
3211;SDS011;1618;47.056;15.472;2023-04-30T00:04:10;5.50;;;5.20;;
3211;SDS011;1618;47.056;15.472;2023-04-30T00:06:38;5.90;;;5.37;;
3211;SDS011;1618;47.056;15.472;2023-04-30T00:09:10;6.17;;;5.87;;
3211;SDS011;1618;47.056;15.472;2023-04-30T00:11:38;6.17;;;5.73;;
3211;SDS011;1618;47.056;15.472;2023-04-30T00:17:10;5.93;;;5.63;;
3211;SDS011;1618;47.056;15.472;2023-04-30T00:19:38;5.97;;;5.67;;
3211;SDS011;1618;47.056;15.472;2023-04-30T00:22:06;6.27;;;5.87;;
3211;SDS011;1618;47.056;15.472;2023-04-30T00:24:38;6.83;;;6.50;;
3211;SDS011;1618;47.056;15.472;2023-04-30T00:27:06;7.07;;;6.67;;
3211;SDS011;1618;47.056;15.472;2023-04-30T00:29:41;6.93;;;6.33;;
3211;SDS011;1618;47.056;15.472;2023-04-30T00:32:14;6.30;;;6.00;;
3211;SDS011;1618;47.056;15.472;2023-04-30T00:34:41;6.30;;;6.00;;
3211;SDS011;1618;47.056;15.472;2023-04-30T00:37:09;6.00;;;5.60;;
3211;SDS011;1618;47.056;15.472;2023-04-30T00:39:37;6.47;;;5.97;;
3211;SDS011;1618;47.056;15.472;2023-04-30T00:42:05;6.83;;;6.33;;
3211;SDS011;1618;47.056;15.472;2023-04-30T00:44:33;6.70;;;6.30;;
3211;SDS011;1618;47.056;15.472;2023-04-30T00:47:01;6.20;;;5.90;;
3211;SDS011;1618;47.056;15.472;2023-04-30T00:49:31;6.60;;;6.30;;
3211;SDS011;1618;47.056;15.472;2023-04-30T00:52:05;6.13;;;5.80;;
3211;SDS011;1618;47.056;15.472;2023-04-30T00:54:37;5.87;;;5.57;;
3211;SDS011;1618;47.056;15.472;2023-04-30T00:57:06;6.23;;;5.83;;
3211;SDS011;1618;47.056;15.472;2023-04-30T00:59:35;5.70;;;5.50;;
3211;SDS011;1618;47.056;15.472;2023-04-30T01:02:07;5.97;;;5.67;;
3211;SDS011;1618;47.056;15.472;2023-04-30T01:04:40;6.10;;;5.80;;
3211;SDS011;1618;47.056;15.472;2023-04-30T01:07:12;6.43;;;6.03;;
3211;SDS011;1618;47.056;15.472;2023-04-30T01:09:41;6.20;;;5.90;;
3211;SDS011;1618;47.056;15.472;2023-04-30T01:12:19;6.40;;;6.10;;
3211;SDS011;1618;47.056;15.472;2023-04-30T01:14:50;6.33;;;5.80;;
3211;SDS011;1618;47.056;15.472;2023-04-30T01:17:20;6.20;;;5.90;;
3211;SDS011;1618;47.056;15.472;2023-04-30T01:19:52;5.90;;;5.70;;
3211;SDS011;1618;47.056;15.472;2023-04-30T01:22:24;6.07;;;5.77;;
3211;SDS011;1618;47.056;15.472;2023-04-30T01:25:13;5.90;;;5.70;;
3211;SDS011;1618;47.056;15.472;2023-04-30T01:30:39;6.20;;;5.87;;
3211;SDS011;1618;47.056;15.472;2023-04-30T01:33:10;6.20;;;5.90;;
3211;SDS011;1618;47.056;15.472;2023-04-30T01:35:44;6.80;;;6.40;;
3211;SDS011;1618;47.056;15.472;2023-04-30T01:38:23;6.70;;;6.30;;
3211;SDS011;1618;47.056;15.472;2023-04-30T01:40:57;5.90;;;5.60;;
3211;SDS011;1618;47.056;15.472;2023-04-30T01:43:27;5.87;;;5.60;;
3211;SDS011;1618;47.056;15.472;2023-04-30T01:46:06;6.23;;;5.93;;
3211;SDS011;1618;47.056;15.472;2023-04-30T01:48:38;6.10;;;5.80;;
3211;SDS011;1618;47.056;15.472;2023-04-30T01:51:10;5.70;;;5.40;;
3211;SDS011;1618;47.056;15.472;2023-04-30T01:53:43;6.17;;;5.77;;
3211;SDS011;1618;47.056;15.472;2023-04-30T01:56:13;5.93;;;5.63;;
3211;SDS011;1618;47.056;15.472;2023-04-30T01:58:43;5.87;;;5.57;;
3211;SDS011;1618;47.056;15.472;2023-04-30T02:01:25;6.27;;;5.97;;
3211;SDS011;1618;47.056;15.472;2023-04-30T02:04:01;6.27;;;5.97;;
3211;SDS011;1618;47.056;15.472;2023-04-30T02:06:31;5.80;;;5.50;;
3211;SDS011;1618;47.056;15.472;2023-04-30T02:08:59;5.97;;;5.67;;
3211;SDS011;1618;47.056;15.472;2023-04-30T02:11:29;5.83;;;5.53;;
3211;SDS011;1618;47.056;15.472;2023-04-30T02:13:57;5.63;;;5.30;;
3211;SDS011;1618;47.056;15.472;2023-04-30T02:16:27;5.97;;;5.67;;
3211;SDS011;1618;47.056;15.472;2023-04-30T02:18:55;5.53;;;5.33;;
3211;SDS011;1618;47.056;15.472;2023-04-30T02:21:24;5.03;;;4.83;;
3211;SDS011;1618;47.056;15.472;2023-04-30T02:23:53;5.30;;;5.10;;
3211;SDS011;1618;47.056;15.472;2023-04-30T02:26:21;5.73;;;5.50;;
3211;SDS011;1618;47.056;15.472;2023-04-30T02:28:49;5.77;;;5.50;;
3211;SDS011;1618;47.056;15.472;2023-04-30T02:31:18;5.10;;;4.87;;
3211;SDS011;1618;47.056;15.472;2023-04-30T02:33:48;5.30;;;5.00;;
3211;SDS011;1618;47.056;15.472;2023-04-30T02:36:17;5.53;;;5.23;;
3211;SDS011;1618;47.056;15.472;2023-04-30T02:38:49;5.80;;;5.50;;
3211;SDS011;1618;47.056;15.472;2023-04-30T02:41:20;5.80;;;5.50;;
3211;SDS011;1618;47.056;15.472;2023-04-30T02:43:47;5.20;;;5.00;;
3211;SDS011;1618;47.056;15.472;2023-04-30T02:46:15;5.80;;;5.40;;
3211;SDS011;1618;47.056;15.472;2023-04-30T02:48:44;5.40;;;5.20;;
3211;SDS011;1618;47.056;15.472;2023-04-30T02:51:13;4.70;;;4.50;;
3211;SDS011;1618;47.056;15.472;2023-04-30T02:53:41;4.80;;;4.60;;
3211;SDS011;1618;47.056;15.472;2023-04-30T02:56:09;4.80;;;4.60;;
3211;SDS011;1618;47.056;15.472;2023-04-30T02:58:37;4.70;;;4.50;;
3211;SDS011;1618;47.056;15.472;2023-04-30T03:01:07;4.60;;;4.40;;
3211;SDS011;1618;47.056;15.472;2023-04-30T03:03:34;4.53;;;4.33;;
3211;SDS011;1618;47.056;15.472;2023-04-30T03:06:04;5.30;;;4.90;;
3211;SDS011;1618;47.056;15.472;2023-04-30T03:08:34;5.40;;;5.20;;
3211;SDS011;1618;47.056;15.472;2023-04-30T03:11:03;6.07;;;5.77;;
3211;SDS011;1618;47.056;15.472;2023-04-30T03:13:36;6.00;;;5.70;;
3211;SDS011;1618;47.056;15.472;2023-04-30T03:16:04;5.70;;;5.37;;
3211;SDS011;1618;47.056;15.472;2023-04-30T03:18:36;6.10;;;5.83;;
3211;SDS011;1618;47.056;15.472;2023-04-30T03:21:04;6.97;;;6.67;;
3211;SDS011;1618;47.056;15.472;2023-04-30T03:23:34;6.50;;;6.20;;
3211;SDS011;1618;47.056;15.472;2023-04-30T03:26:03;7.03;;;6.67;;
3211;SDS011;1618;47.056;15.472;2023-04-30T03:28:31;6.00;;;5.70;;
3211;SDS011;1618;47.056;15.472;2023-04-30T03:31:04;6.20;;;5.90;;
3211;SDS011;1618;47.056;15.472;2023-04-30T03:33:32;6.13;;;5.93;;
3211;SDS011;1618;47.056;15.472;2023-04-30T03:36:01;5.83;;;5.60;;
3211;SDS011;1618;47.056;15.472;2023-04-30T03:38:29;6.13;;;5.87;;
3211;SDS011;1618;47.056;15.472;2023-04-30T03:41:04;5.93;;;5.63;;
3211;SDS011;1618;47.056;15.472;2023-04-30T03:43:31;7.60;;;7.20;;
3211;SDS011;1618;47.056;15.472;2023-04-30T03:45:58;7.57;;;7.20;;
3211;SDS011;1618;47.056;15.472;2023-04-30T03:48:27;7.00;;;6.70;;
3211;SDS011;1618;47.056;15.472;2023-04-30T03:50:54;8.20;;;7.60;;
3211;SDS011;1618;47.056;15.472;2023-04-30T03:53:21;7.80;;;7.40;;
3211;SDS011;1618;47.056;15.472;2023-04-30T03:55:50;7.07;;;6.77;;
3211;SDS011;1618;47.056;15.472;2023-04-30T03:58:22;7.20;;;6.90;;
3211;SDS011;1618;47.056;15.472;2023-04-30T04:00:56;6.90;;;6.50;;
3211;SDS011;1618;47.056;15.472;2023-04-30T04:03:23;6.50;;;6.20;;
3211;SDS011;1618;47.056;15.472;2023-04-30T04:05:54;6.00;;;5.70;;
3211;SDS011;1618;47.056;15.472;2023-04-30T04:08:23;5.60;;;5.40;;
3211;SDS011;1618;47.056;15.472;2023-04-30T04:10:52;5.97;;;5.67;;
3211;SDS011;1618;47.056;15.472;2023-04-30T04:13:26;6.17;;;5.60;;
3211;SDS011;1618;47.056;15.472;2023-04-30T04:15:55;6.97;;;6.57;;
3211;SDS011;1618;47.056;15.472;2023-04-30T04:18:23;7.47;;;7.07;;
3211;SDS011;1618;47.056;15.472;2023-04-30T04:20:53;8.20;;;7.90;;
3211;SDS011;1618;47.056;15.472;2023-04-30T04:23:22;8.43;;;8.13;;
3211;SDS011;1618;47.056;15.472;2023-04-30T04:25:54;9.00;;;8.60;;
3211;SDS011;1618;47.056;15.472;2023-04-30T04:28:22;8.67;;;8.27;;
3211;SDS011;1618;47.056;15.472;2023-04-30T04:30:53;9.80;;;7.47;;
3211;SDS011;1618;47.056;15.472;2023-04-30T04:33:20;8.07;;;7.63;;
3211;SDS011;1618;47.056;15.472;2023-04-30T04:35:50;6.63;;;6.23;;
3211;SDS011;1618;47.056;15.472;2023-04-30T04:38:17;5.90;;;5.70;;
3211;SDS011;1618;47.056;15.472;2023-04-30T04:40:50;7.20;;;6.90;;
3211;SDS011;1618;47.056;15.472;2023-04-30T04:43:24;7.30;;;7.00;;
3211;SDS011;1618;47.056;15.472;2023-04-30T04:45:54;8.27;;;7.87;;
3211;SDS011;1618;47.056;15.472;2023-04-30T04:48:23;8.10;;;7.80;;
3211;SDS011;1618;47.056;15.472;2023-04-30T04:50:51;8.77;;;8.37;;
3211;SDS011;1618;47.056;15.472;2023-04-30T04:53:24;10.00;;;9.50;;
3211;SDS011;1618;47.056;15.472;2023-04-30T04:55:51;9.93;;;9.47;;
3211;SDS011;1618;47.056;15.472;2023-04-30T04:58:19;11.20;;;10.70;;
3211;SDS011;1618;47.056;15.472;2023-04-30T05:00:47;13.60;;;13.00;;
3211;SDS011;1618;47.056;15.472;2023-04-30T05:03:17;15.00;;;14.10;;
3211;SDS011;1618;47.056;15.472;2023-04-30T05:05:48;14.10;;;13.40;;
3211;SDS011;1618;47.056;15.472;2023-04-30T05:08:17;14.67;;;13.87;;
3211;SDS011;1618;47.056;15.472;2023-04-30T05:10:47;15.00;;;14.30;;
3211;SDS011;1618;47.056;15.472;2023-04-30T05:13:16;14.80;;;14.10;;
3211;SDS011;1618;47.056;15.472;2023-04-30T05:15:44;14.40;;;13.70;;
3211;SDS011;1618;47.056;15.472;2023-04-30T05:18:13;13.00;;;12.30;;
3211;SDS011;1618;47.056;15.472;2023-04-30T05:20:43;13.40;;;12.70;;
3211;SDS011;1618;47.056;15.472;2023-04-30T05:23:15;14.10;;;13.37;;
3211;SDS011;1618;47.056;15.472;2023-04-30T05:25:43;13.40;;;12.80;;
3211;SDS011;1618;47.056;15.472;2023-04-30T05:28:10;14.50;;;13.80;;
3211;SDS011;1618;47.056;15.472;2023-04-30T05:30:38;15.60;;;14.90;;
3211;SDS011;1618;47.056;15.472;2023-04-30T05:33:08;16.60;;;15.80;;
3211;SDS011;1618;47.056;15.472;2023-04-30T05:35:37;17.60;;;16.70;;
3211;SDS011;1618;47.056;15.472;2023-04-30T05:38:06;17.30;;;16.40;;
3211;SDS011;1618;47.056;15.472;2023-04-30T05:40:33;17.53;;;16.63;;
3211;SDS011;1618;47.056;15.472;2023-04-30T05:43:01;17.63;;;16.73;;
3211;SDS011;1618;47.056;15.472;2023-04-30T05:45:28;17.77;;;16.17;;
3211;SDS011;1618;47.056;15.472;2023-04-30T05:47:56;16.73;;;15.83;;
3211;SDS011;1618;47.056;15.472;2023-04-30T05:50:26;16.80;;;15.80;;
3211;SDS011;1618;47.056;15.472;2023-04-30T05:52:54;16.97;;;15.40;;
3211;SDS011;1618;47.056;15.472;2023-04-30T05:55:25;16.90;;;16.00;;
3211;SDS011;1618;47.056;15.472;2023-04-30T05:57:52;14.70;;;14.00;;
3211;SDS011;1618;47.056;15.472;2023-04-30T06:00:19;13.90;;;13.20;;
3211;SDS011;1618;47.056;15.472;2023-04-30T06:02:47;12.60;;;11.90;;
3211;SDS011;1618;47.056;15.472;2023-04-30T06:05:15;11.90;;;11.20;;
3211;SDS011;1618;47.056;15.472;2023-04-30T06:07:42;10.17;;;9.67;;
3211;SDS011;1618;47.056;15.472;2023-04-30T06:10:10;10.57;;;10.10;;
3211;SDS011;1618;47.056;15.472;2023-04-30T06:12:39;9.87;;;9.37;;
3211;SDS011;1618;47.056;15.472;2023-04-30T06:15:06;10.00;;;9.50;;
3211;SDS011;1618;47.056;15.472;2023-04-30T06:17:34;9.10;;;8.70;;
3211;SDS011;1618;47.056;15.472;2023-04-30T06:20:02;10.20;;;9.60;;
3211;SDS011;1618;47.056;15.472;2023-04-30T06:22:31;10.10;;;9.53;;
3211;SDS011;1618;47.056;15.472;2023-04-30T06:24:58;9.67;;;9.27;;
3211;SDS011;1618;47.056;15.472;2023-04-30T06:27:25;9.30;;;8.90;;
3211;SDS011;1618;47.056;15.472;2023-04-30T06:29:54;10.10;;;9.60;;
3211;SDS011;1618;47.056;15.472;2023-04-30T06:32:23;9.97;;;9.37;;
3211;SDS011;1618;47.056;15.472;2023-04-30T06:34:50;10.40;;;9.90;;
3211;SDS011;1618;47.056;15.472;2023-04-30T06:37:18;11.13;;;10.63;;
3211;SDS011;1618;47.056;15.472;2023-04-30T06:39:49;10.83;;;10.33;;
3211;SDS011;1618;47.056;15.472;2023-04-30T06:42:16;10.90;;;10.30;;
3211;SDS011;1618;47.056;15.472;2023-04-30T06:44:44;11.07;;;10.47;;
3211;SDS011;1618;47.056;15.472;2023-04-30T06:47:13;11.13;;;10.53;;
3211;SDS011;1618;47.056;15.472;2023-04-30T06:49:41;11.70;;;11.10;;
3211;SDS011;1618;47.056;15.472;2023-04-30T06:52:09;12.03;;;11.43;;
3211;SDS011;1618;47.056;15.472;2023-04-30T06:54:38;14.30;;;13.50;;
3211;SDS011;1618;47.056;15.472;2023-04-30T06:57:08;12.80;;;12.20;;
3211;SDS011;1618;47.056;15.472;2023-04-30T06:59:36;11.60;;;11.10;;
3211;SDS011;1618;47.056;15.472;2023-04-30T07:02:05;11.50;;;11.00;;
3211;SDS011;1618;47.056;15.472;2023-04-30T07:04:33;11.53;;;10.97;;
3211;SDS011;1618;47.056;15.472;2023-04-30T07:07:03;12.33;;;11.73;;
3211;SDS011;1618;47.056;15.472;2023-04-30T07:09:32;11.87;;;11.27;;
3211;SDS011;1618;47.056;15.472;2023-04-30T07:12:02;10.40;;;9.90;;
3211;SDS011;1618;47.056;15.472;2023-04-30T07:14:30;10.37;;;9.80;;
3211;SDS011;1618;47.056;15.472;2023-04-30T07:16:58;10.90;;;10.27;;
3211;SDS011;1618;47.056;15.472;2023-04-30T07:19:25;10.40;;;9.90;;
3211;SDS011;1618;47.056;15.472;2023-04-30T07:21:54;11.30;;;10.70;;
3211;SDS011;1618;47.056;15.472;2023-04-30T07:24:21;10.93;;;10.33;;
3211;SDS011;1618;47.056;15.472;2023-04-30T07:26:49;10.23;;;9.73;;
3211;SDS011;1618;47.056;15.472;2023-04-30T07:29:16;11.43;;;10.90;;
3211;SDS011;1618;47.056;15.472;2023-04-30T07:31:43;12.53;;;11.83;;
3211;SDS011;1618;47.056;15.472;2023-04-30T07:34:11;12.97;;;12.17;;
3211;SDS011;1618;47.056;15.472;2023-04-30T07:36:38;13.13;;;12.43;;
3211;SDS011;1618;47.056;15.472;2023-04-30T07:39:07;13.10;;;12.30;;
3211;SDS011;1618;47.056;15.472;2023-04-30T07:41:35;13.33;;;12.63;;
3211;SDS011;1618;47.056;15.472;2023-04-30T07:44:04;13.10;;;12.40;;
3211;SDS011;1618;47.056;15.472;2023-04-30T07:46:33;13.10;;;12.40;;
3211;SDS011;1618;47.056;15.472;2023-04-30T07:49:01;13.60;;;12.90;;
3211;SDS011;1618;47.056;15.472;2023-04-30T07:51:28;13.67;;;12.97;;
3211;SDS011;1618;47.056;15.472;2023-04-30T07:53:57;14.10;;;13.40;;
3211;SDS011;1618;47.056;15.472;2023-04-30T07:56:25;15.60;;;14.60;;
3211;SDS011;1618;47.056;15.472;2023-04-30T07:58:53;15.40;;;14.50;;
3211;SDS011;1618;47.056;15.472;2023-04-30T08:01:21;18.37;;;17.37;;
3211;SDS011;1618;47.056;15.472;2023-04-30T08:03:49;18.50;;;17.40;;
3211;SDS011;1618;47.056;15.472;2023-04-30T08:06:16;18.23;;;17.23;;
3211;SDS011;1618;47.056;15.472;2023-04-30T08:08:43;17.57;;;16.57;;
3211;SDS011;1618;47.056;15.472;2023-04-30T08:11:11;18.17;;;17.17;;
3211;SDS011;1618;47.056;15.472;2023-04-30T08:13:40;17.50;;;16.50;;
3211;SDS011;1618;47.056;15.472;2023-04-30T08:16:08;18.63;;;17.43;;
3211;SDS011;1618;47.056;15.472;2023-04-30T08:18:37;19.20;;;18.10;;
3211;SDS011;1618;47.056;15.472;2023-04-30T08:21:08;18.80;;;17.60;;
3211;SDS011;1618;47.056;15.472;2023-04-30T08:23:37;19.10;;;17.90;;
3211;SDS011;1618;47.056;15.472;2023-04-30T08:26:04;20.47;;;19.17;;
3211;SDS011;1618;47.056;15.472;2023-04-30T08:28:31;20.03;;;18.73;;
3211;SDS011;1618;47.056;15.472;2023-04-30T08:31:00;20.63;;;19.33;;
3211;SDS011;1618;47.056;15.472;2023-04-30T08:33:29;21.77;;;20.47;;
3211;SDS011;1618;47.056;15.472;2023-04-30T08:36:03;21.00;;;19.53;;
3211;SDS011;1618;47.056;15.472;2023-04-30T08:38:31;21.80;;;20.40;;
3211;SDS011;1618;47.056;15.472;2023-04-30T08:41:02;21.73;;;20.23;;
3211;SDS011;1618;47.056;15.472;2023-04-30T08:43:33;22.17;;;20.67;;
3211;SDS011;1618;47.056;15.472;2023-04-30T08:46:02;22.63;;;21.13;;
3211;SDS011;1618;47.056;15.472;2023-04-30T08:48:29;24.80;;;23.00;;
3211;SDS011;1618;47.056;15.472;2023-04-30T08:50:58;22.90;;;21.30;;
3211;SDS011;1618;47.056;15.472;2023-04-30T08:53:26;23.50;;;21.70;;
3211;SDS011;1618;47.056;15.472;2023-04-30T08:55:53;24.03;;;22.20;;
3211;SDS011;1618;47.056;15.472;2023-04-30T08:58:21;23.50;;;21.90;;
3211;SDS011;1618;47.056;15.472;2023-04-30T09:00:48;23.60;;;21.87;;
3211;SDS011;1618;47.056;15.472;2023-04-30T09:03:17;24.03;;;22.33;;
3211;SDS011;1618;47.056;15.472;2023-04-30T09:05:47;24.60;;;22.70;;
3211;SDS011;1618;47.056;15.472;2023-04-30T09:08:15;23.53;;;21.83;;
3211;SDS011;1618;47.056;15.472;2023-04-30T09:10:47;23.50;;;21.80;;
3211;SDS011;1618;47.056;15.472;2023-04-30T09:13:16;24.30;;;22.70;;
3211;SDS011;1618;47.056;15.472;2023-04-30T09:15:43;24.00;;;22.40;;
3211;SDS011;1618;47.056;15.472;2023-04-30T09:18:12;24.53;;;22.83;;
3211;SDS011;1618;47.056;15.472;2023-04-30T09:23:56;23.40;;;21.80;;
3211;SDS011;1618;47.056;15.472;2023-04-30T09:26:31;23.33;;;21.60;;
3211;SDS011;1618;47.056;15.472;2023-04-30T09:28:59;23.50;;;21.80;;
3211;SDS011;1618;47.056;15.472;2023-04-30T09:31:32;23.20;;;21.60;;
3211;SDS011;1618;47.056;15.472;2023-04-30T09:34:00;23.00;;;21.40;;
3211;SDS011;1618;47.056;15.472;2023-04-30T09:36:28;23.53;;;21.80;;
3211;SDS011;1618;47.056;15.472;2023-04-30T09:39:08;23.50;;;21.80;;
3211;SDS011;1618;47.056;15.472;2023-04-30T09:41:37;24.27;;;22.60;;
3211;SDS011;1618;47.056;15.472;2023-04-30T09:44:05;25.90;;;23.80;;
3211;SDS011;1618;47.056;15.472;2023-04-30T09:46:32;25.87;;;23.97;;
3211;SDS011;1618;47.056;15.472;2023-04-30T09:49:02;26.40;;;24.50;;
3211;SDS011;1618;47.056;15.472;2023-04-30T09:51:29;26.60;;;24.73;;
3211;SDS011;1618;47.056;15.472;2023-04-30T09:53:57;26.87;;;24.97;;
3211;SDS011;1618;47.056;15.472;2023-04-30T09:56:27;26.87;;;24.97;;
3211;SDS011;1618;47.056;15.472;2023-04-30T09:58:54;27.57;;;25.10;;
3211;SDS011;1618;47.056;15.472;2023-04-30T10:01:24;26.70;;;24.80;;
3211;SDS011;1618;47.056;15.472;2023-04-30T10:03:52;26.40;;;24.50;;
3211;SDS011;1618;47.056;15.472;2023-04-30T10:06:20;26.23;;;24.33;;
3211;SDS011;1618;47.056;15.472;2023-04-30T10:08:48;26.43;;;24.60;;
3211;SDS011;1618;47.056;15.472;2023-04-30T10:11:20;26.90;;;25.10;;
3211;SDS011;1618;47.056;15.472;2023-04-30T10:13:53;26.27;;;24.47;;
3211;SDS011;1618;47.056;15.472;2023-04-30T10:16:23;25.50;;;23.63;;
3211;SDS011;1618;47.056;15.472;2023-04-30T10:18:53;24.33;;;22.43;;
3211;SDS011;1618;47.056;15.472;2023-04-30T10:21:23;24.10;;;22.30;;
3211;SDS011;1618;47.056;15.472;2023-04-30T10:23:52;23.67;;;22.03;;
3211;SDS011;1618;47.056;15.472;2023-04-30T10:26:20;24.90;;;23.10;;
3211;SDS011;1618;47.056;15.472;2023-04-30T10:28:49;25.50;;;23.60;;
3211;SDS011;1618;47.056;15.472;2023-04-30T10:31:19;26.17;;;24.17;;
3211;SDS011;1618;47.056;15.472;2023-04-30T10:33:49;26.57;;;24.33;;
3211;SDS011;1618;47.056;15.472;2023-04-30T10:36:25;27.52;;;25.23;;
3211;SDS011;1618;47.056;15.472;2023-04-30T10:38:56;27.17;;;24.97;;
3211;SDS011;1618;47.056;15.472;2023-04-30T10:41:25;27.40;;;25.20;;
3211;SDS011;1618;47.056;15.472;2023-04-30T10:43:55;27.83;;;25.43;;
3211;SDS011;1618;47.056;15.472;2023-04-30T10:46:24;27.07;;;24.87;;
3211;SDS011;1618;47.056;15.472;2023-04-30T10:48:52;29.77;;;27.67;;
3211;SDS011;1618;47.056;15.472;2023-04-30T10:51:20;27.87;;;25.60;;
3211;SDS011;1618;47.056;15.472;2023-04-30T10:53:48;28.83;;;26.53;;
3211;SDS011;1618;47.056;15.472;2023-04-30T10:56:28;28.60;;;26.20;;
3211;SDS011;1618;47.056;15.472;2023-04-30T10:58:58;27.63;;;25.33;;
3211;SDS011;1618;47.056;15.472;2023-04-30T11:01:28;29.60;;;27.00;;
3211;SDS011;1618;47.056;15.472;2023-04-30T11:04:05;29.37;;;26.83;;
3211;SDS011;1618;47.056;15.472;2023-04-30T11:09:15;28.17;;;25.77;;
3211;SDS011;1618;47.056;15.472;2023-04-30T11:11:43;28.70;;;26.30;;
3211;SDS011;1618;47.056;15.472;2023-04-30T11:14:10;29.57;;;27.07;;
3211;SDS011;1618;47.056;15.472;2023-04-30T11:16:39;28.70;;;26.30;;
3211;SDS011;1618;47.056;15.472;2023-04-30T11:19:10;27.73;;;25.43;;
3211;SDS011;1618;47.056;15.472;2023-04-30T11:21:39;27.93;;;25.53;;
3211;SDS011;1618;47.056;15.472;2023-04-30T11:24:06;27.70;;;25.30;;
3211;SDS011;1618;47.056;15.472;2023-04-30T11:29:15;29.60;;;27.40;;
3211;SDS011;1618;47.056;15.472;2023-04-30T11:31:45;29.63;;;27.30;;
3211;SDS011;1618;47.056;15.472;2023-04-30T11:34:12;28.83;;;26.43;;
3211;SDS011;1618;47.056;15.472;2023-04-30T11:36:40;28.73;;;26.23;;
3211;SDS011;1618;47.056;15.472;2023-04-30T11:39:08;27.70;;;25.30;;
3211;SDS011;1618;47.056;15.472;2023-04-30T11:41:39;28.20;;;25.70;;
3211;SDS011;1618;47.056;15.472;2023-04-30T11:44:20;28.37;;;25.97;;
3211;SDS011;1618;47.056;15.472;2023-04-30T11:46:49;30.10;;;27.80;;
3211;SDS011;1618;47.056;15.472;2023-04-30T11:49:17;28.93;;;26.20;;
3211;SDS011;1618;47.056;15.472;2023-04-30T11:51:47;31.30;;;28.90;;
3211;SDS011;1618;47.056;15.472;2023-04-30T11:54:15;28.83;;;26.23;;
3211;SDS011;1618;47.056;15.472;2023-04-30T11:56:44;30.73;;;28.23;;
3211;SDS011;1618;47.056;15.472;2023-04-30T11:59:12;29.70;;;26.77;;
3211;SDS011;1618;47.056;15.472;2023-04-30T12:01:40;29.73;;;27.33;;
3211;SDS011;1618;47.056;15.472;2023-04-30T12:04:09;31.80;;;29.30;;
3211;SDS011;1618;47.056;15.472;2023-04-30T12:06:36;30.60;;;28.00;;
3211;SDS011;1618;47.056;15.472;2023-04-30T12:09:03;30.80;;;28.20;;
3211;SDS011;1618;47.056;15.472;2023-04-30T12:11:33;32.30;;;29.70;;
3211;SDS011;1618;47.056;15.472;2023-04-30T12:14:02;32.43;;;29.83;;
3211;SDS011;1618;47.056;15.472;2023-04-30T12:16:38;32.20;;;29.70;;
3211;SDS011;1618;47.056;15.472;2023-04-30T12:19:05;30.20;;;27.70;;
3211;SDS011;1618;47.056;15.472;2023-04-30T12:21:35;31.33;;;28.57;;
3211;SDS011;1618;47.056;15.472;2023-04-30T12:24:03;30.77;;;28.13;;
3211;SDS011;1618;47.056;15.472;2023-04-30T12:26:33;30.57;;;27.80;;
3211;SDS011;1618;47.056;15.472;2023-04-30T12:29:02;30.43;;;27.63;;
3211;SDS011;1618;47.056;15.472;2023-04-30T12:31:36;30.60;;;27.90;;
3211;SDS011;1618;47.056;15.472;2023-04-30T12:34:04;30.63;;;28.03;;
3211;SDS011;1618;47.056;15.472;2023-04-30T12:36:32;31.37;;;28.67;;
3211;SDS011;1618;47.056;15.472;2023-04-30T12:39:09;30.40;;;27.70;;
3211;SDS011;1618;47.056;15.472;2023-04-30T12:41:40;30.57;;;27.80;;
3211;SDS011;1618;47.056;15.472;2023-04-30T12:44:18;28.80;;;26.20;;
3211;SDS011;1618;47.056;15.472;2023-04-30T12:46:48;28.80;;;26.30;;
3211;SDS011;1618;47.056;15.472;2023-04-30T12:49:24;29.53;;;27.00;;
3211;SDS011;1618;47.056;15.472;2023-04-30T12:51:51;30.27;;;27.67;;
3211;SDS011;1618;47.056;15.472;2023-04-30T12:54:28;30.50;;;27.90;;
3211;SDS011;1618;47.056;15.472;2023-04-30T12:57:01;30.50;;;28.00;;
3211;SDS011;1618;47.056;15.472;2023-04-30T12:59:29;29.70;;;27.20;;
3211;SDS011;1618;47.056;15.472;2023-04-30T13:02:04;30.10;;;27.60;;
3211;SDS011;1618;47.056;15.472;2023-04-30T13:04:33;30.43;;;27.83;;
3211;SDS011;1618;47.056;15.472;2023-04-30T13:07:01;29.73;;;27.23;;
3211;SDS011;1618;47.056;15.472;2023-04-30T13:09:31;29.43;;;26.93;;
3211;SDS011;1618;47.056;15.472;2023-04-30T13:12:07;30.20;;;27.60;;
3211;SDS011;1618;47.056;15.472;2023-04-30T13:14:34;30.07;;;27.57;;
3211;SDS011;1618;47.056;15.472;2023-04-30T13:17:01;30.03;;;27.53;;
3211;SDS011;1618;47.056;15.472;2023-04-30T13:19:32;31.83;;;29.43;;
3211;SDS011;1618;47.056;15.472;2023-04-30T13:22:01;29.80;;;27.20;;
3211;SDS011;1618;47.056;15.472;2023-04-30T13:24:29;31.30;;;28.90;;
3211;SDS011;1618;47.056;15.472;2023-04-30T13:26:58;32.50;;;30.10;;
3211;SDS011;1618;47.056;15.472;2023-04-30T13:29:27;29.60;;;26.70;;
3211;SDS011;1618;47.056;15.472;2023-04-30T13:31:55;32.10;;;29.70;;
3211;SDS011;1618;47.056;15.472;2023-04-30T13:34:24;29.03;;;26.50;;
3211;SDS011;1618;47.056;15.472;2023-04-30T13:36:51;28.93;;;26.43;;
3211;SDS011;1618;47.056;15.472;2023-04-30T13:39:19;29.00;;;26.40;;
3211;SDS011;1618;47.056;15.472;2023-04-30T13:41:46;32.60;;;30.10;;
3211;SDS011;1618;47.056;15.472;2023-04-30T13:44:17;31.57;;;28.90;;
3211;SDS011;1618;47.056;15.472;2023-04-30T13:46:44;31.20;;;28.60;;
3211;SDS011;1618;47.056;15.472;2023-04-30T13:49:11;30.70;;;28.00;;
3211;SDS011;1618;47.056;15.472;2023-04-30T13:51:40;32.30;;;29.90;;
3211;SDS011;1618;47.056;15.472;2023-04-30T13:54:09;30.73;;;28.13;;
3211;SDS011;1618;47.056;15.472;2023-04-30T13:56:36;31.83;;;29.43;;
3211;SDS011;1618;47.056;15.472;2023-04-30T13:59:03;32.20;;;29.80;;
3211;SDS011;1618;47.056;15.472;2023-04-30T14:01:32;32.30;;;29.90;;
3211;SDS011;1618;47.056;15.472;2023-04-30T14:03:59;32.07;;;29.60;;
3211;SDS011;1618;47.056;15.472;2023-04-30T14:06:27;33.00;;;30.40;;
3211;SDS011;1618;47.056;15.472;2023-04-30T14:08:55;33.03;;;30.53;;
3211;SDS011;1618;47.056;15.472;2023-04-30T14:11:24;33.47;;;30.97;;
3211;SDS011;1618;47.056;15.472;2023-04-30T14:13:53;32.63;;;30.13;;
3211;SDS011;1618;47.056;15.472;2023-04-30T14:16:22;33.90;;;31.40;;
3211;SDS011;1618;47.056;15.472;2023-04-30T14:18:52;32.60;;;30.20;;
3211;SDS011;1618;47.056;15.472;2023-04-30T14:21:20;31.90;;;29.50;;
3211;SDS011;1618;47.056;15.472;2023-04-30T14:23:47;34.17;;;31.57;;
3211;SDS011;1618;47.056;15.472;2023-04-30T14:26:17;30.87;;;28.37;;
3211;SDS011;1618;47.056;15.472;2023-04-30T14:28:45;31.40;;;28.80;;
3211;SDS011;1618;47.056;15.472;2023-04-30T14:31:13;30.60;;;28.00;;
3211;SDS011;1618;47.056;15.472;2023-04-30T14:33:40;30.10;;;27.30;;
3211;SDS011;1618;47.056;15.472;2023-04-30T14:36:10;30.03;;;27.23;;
3211;SDS011;1618;47.056;15.472;2023-04-30T14:38:38;30.13;;;27.43;;
3211;SDS011;1618;47.056;15.472;2023-04-30T14:41:06;30.07;;;27.37;;
3211;SDS011;1618;47.056;15.472;2023-04-30T14:43:35;31.30;;;28.60;;
3211;SDS011;1618;47.056;15.472;2023-04-30T14:46:03;30.93;;;28.43;;
3211;SDS011;1618;47.056;15.472;2023-04-30T14:48:31;28.93;;;26.33;;
3211;SDS011;1618;47.056;15.472;2023-04-30T14:50:59;29.43;;;26.83;;
3211;SDS011;1618;47.056;15.472;2023-04-30T14:53:29;30.43;;;27.73;;
3211;SDS011;1618;47.056;15.472;2023-04-30T14:55:57;32.10;;;29.60;;
3211;SDS011;1618;47.056;15.472;2023-04-30T14:58:24;31.00;;;28.10;;
3211;SDS011;1618;47.056;15.472;2023-04-30T15:00:52;33.03;;;30.33;;
3211;SDS011;1618;47.056;15.472;2023-04-30T15:03:22;31.13;;;28.63;;
3211;SDS011;1618;47.056;15.472;2023-04-30T15:05:53;32.50;;;30.03;;
3211;SDS011;1618;47.056;15.472;2023-04-30T15:08:21;29.50;;;26.90;;
3211;SDS011;1618;47.056;15.472;2023-04-30T15:10:49;30.10;;;27.40;;